Time;durP1;ratioP1;P1;durP2;ratioP2;P2;SDS_P1;SDS_P2;PMS_P1;PMS_P2;Temp;Humidity;BMP_temperature;BMP_pressure;BME280_temperature;BME280_humidity;BME280_pressure;Samples;Min_cycle;Max_cycle;Signal;HPM_P1;HPM_P2
2022/10/29 00:00:50;;;;;;;80.30;20.92;;;;;;;11.56;100.00;99901.44;4470489;32;20168;-75
2022/10/29 00:03:18;;;;;;;88.10;21.02;;;;;;;11.63;100.00;99902.66;4473975;32;20096;-75
2022/10/29 00:06:14;;;;;;;120.30;22.67;;;;;;;11.58;100.00;99900.34;4486152;32;20496;-75
2022/10/29 00:08:42;;;;;;;154.48;22.45;;;;;;;11.57;100.00;99897.81;4424785;32;20134;-75
2022/10/29 00:11:17;;;;;;;140.50;23.27;;;;;;;11.53;100.00;99903.31;4421204;32;20157;-75
2022/10/29 00:13:46;;;;;;;102.68;23.40;;;;;;;11.56;100.00;99899.63;4421271;32;20196;-75
2022/10/29 00:16:13;;;;;;;323.70;27.83;;;;;;;11.52;100.00;99898.19;4421383;32;20094;-75
2022/10/29 00:18:40;;;;;;;193.30;24.08;;;;;;;11.56;100.00;99894.37;4421052;32;20106;-75
2022/10/29 00:21:11;;;;;;;290.38;26.55;;;;;;;11.60;100.00;99895.81;4420933;32;20709;-75
2022/10/29 00:23:38;;;;;;;219.45;23.50;;;;;;;11.60;100.00;99897.62;4421211;32;20121;-75
2022/10/29 00:26:06;;;;;;;235.18;21.70;;;;;;;11.61;100.00;99892.25;4420994;32;20114;-74
2022/10/29 00:28:34;;;;;;;331.10;27.15;;;;;;;11.58;100.00;99905.59;4421184;32;20648;-75
2022/10/29 00:31:08;;;;;;;235.68;23.95;;;;;;;11.45;100.00;99902.22;4421018;32;20151;-75
2022/10/29 00:33:35;;;;;;;237.18;22.62;;;;;;;11.43;100.00;99899.72;4408271;32;20117;-75
2022/10/29 00:36:05;;;;;;;350.38;26.20;;;;;;;11.61;100.00;99896.66;4420912;32;20136;-76
2022/10/29 00:38:33;;;;;;;369.95;24.65;;;;;;;11.54;100.00;99905.00;4420884;32;20427;-75
2022/10/29 00:41:02;;;;;;;282.75;23.58;;;;;;;11.47;100.00;99902.94;4421100;32;20098;-76
2022/10/29 00:43:33;;;;;;;323.65;23.73;;;;;;;11.47;100.00;99909.03;4420918;32;20452;-75
2022/10/29 00:46:02;;;;;;;343.30;23.62;;;;;;;11.54;100.00;99909.41;4462278;32;20442;-75
2022/10/29 00:48:32;;;;;;;380.42;25.50;;;;;;;11.58;100.00;99910.00;4468475;32;20104;-75
2022/10/29 00:51:01;;;;;;;206.73;21.02;;;;;;;11.52;100.00;99896.41;4468603;32;20108;-75
2022/10/29 00:53:32;;;;;;;316.90;24.25;;;;;;;11.52;100.00;99900.81;4468295;32;20205;-75
2022/10/29 00:55:59;;;;;;;132.35;18.90;;;;;;;11.51;100.00;99892.09;4468773;32;20127;-75
2022/10/29 00:58:27;;;;;;;260.90;21.33;;;;;;;11.46;100.00;99886.37;4469516;32;20162;-75
2022/10/29 01:00:54;;;;;;;478.62;34.25;;;;;;;11.44;100.00;99897.94;4468475;32;20101;-76
2022/10/29 01:03:21;;;;;;;562.65;35.08;;;;;;;11.41;100.00;99885.03;4473734;32;20157;-75
2022/10/29 01:05:49;;;;;;;545.20;33.35;;;;;;;11.13;100.00;99893.16;4485262;31;20101;-75
2022/10/29 01:08:16;;;;;;;557.22;37.60;;;;;;;11.13;100.00;99884.47;4465695;32;20535;-75
2022/10/29 01:11:12;;;;;;;523.05;32.70;;;;;;;11.12;100.00;99875.75;4454247;32;20169;-75
2022/10/29 01:14:00;;;;;;;393.67;38.70;;;;;;;10.93;100.00;99878.06;4453926;32;20089;-75
2022/10/29 01:16:32;;;;;;;272.50;21.17;;;;;;;10.84;100.00;99879.59;4454122;32;20477;-75
2022/10/29 01:19:21;;;;;;;188.98;20.83;;;;;;;10.90;100.00;99876.50;4453885;32;20641;-76
2022/10/29 01:21:48;;;;;;;371.73;25.52;;;;;;;11.03;100.00;99871.19;4454346;32;20092;-75
2022/10/29 01:24:40;;;;;;;292.80;26.92;;;;;;;11.14;100.00;99866.00;4453863;32;20473;-76
2022/10/29 01:27:26;;;;;;;378.10;24.98;;;;;;;11.05;100.00;99869.28;4453857;32;20553;-75
2022/10/29 01:30:03;;;;;;;273.50;25.42;;;;;;;10.95;100.00;99870.94;4454200;32;20204;-75
2022/10/29 01:32:35;;;;;;;431.58;32.80;;;;;;;11.15;100.00;99862.41;4452936;32;20172;-75
2022/10/29 01:35:09;;;;;;;303.98;25.48;;;;;;;10.93;100.00;99863.19;4453941;32;20100;-75
2022/10/29 01:37:54;;;;;;;387.93;30.97;;;;;;;10.89;100.00;99864.34;4452631;32;20133;-75
2022/10/29 01:40:31;;;;;;;350.85;25.98;;;;;;;10.95;100.00;99857.81;4453942;32;20189;-75
2022/10/29 01:43:04;;;;;;;183.15;20.10;;;;;;;10.85;100.00;99844.53;4452562;32;20134;-75
2022/10/29 01:45:45;;;;;;;;;;;;;;;10.87;100.00;99847.03;4452914;32;20119;-75
2022/10/29 01:48:17;;;;;;;207.37;20.10;;;;;;;11.00;100.00;99839.94;4452645;32;20432;-75
2022/10/29 01:50:48;;;;;;;140.57;18.30;;;;;;;11.06;100.00;99836.03;4452538;32;20152;-75
2022/10/29 01:53:16;;;;;;;99.00;17.45;;;;;;;10.94;100.00;99843.03;4452764;32;20127;-75
2022/10/29 01:55:43;;;;;;;52.47;16.58;;;;;;;10.95;100.00;99842.09;4452555;32;20081;-75
2022/10/29 01:58:11;;;;;;;77.07;17.08;;;;;;;10.98;100.00;99845.31;4453766;32;20096;-75
2022/10/29 02:01:04;;;;;;;135.85;17.87;;;;;;;11.03;100.00;99837.09;4453704;32;20153;-75
2022/10/29 02:03:35;;;;;;;174.33;19.73;;;;;;;10.99;100.00;99830.41;4462747;32;20101;-75
2022/10/29 02:06:23;;;;;;;221.32;21.10;;;;;;;10.94;100.00;99822.06;4484830;31;20308;-75
2022/10/29 02:09:28;;;;;;;218.27;19.90;;;;;;;11.00;100.00;99824.22;4471978;31;20145;-75
2022/10/29 02:12:15;;;;;;;139.32;17.08;;;;;;;10.94;100.00;99835.16;4420175;32;20359;-75
2022/10/29 02:15:12;;;;;;;103.03;17.70;;;;;;;10.87;100.00;99850.53;4407532;32;20672;-75
2022/10/29 02:17:39;;;;;;;254.45;21.30;;;;;;;10.89;100.00;99838.12;4417951;32;20141;-75
2022/10/29 02:20:09;;;;;;;274.02;20.48;;;;;;;10.96;100.00;99828.00;4420258;32;20413;-75
2022/10/29 02:22:36;;;;;;;184.68;18.37;;;;;;;11.08;100.00;99832.38;4407459;32;20461;-75
2022/10/29 02:25:04;;;;;;;389.33;24.42;;;;;;;11.03;100.00;99833.66;4420065;32;20121;-75
2022/10/29 02:27:31;;;;;;;317.40;25.15;;;;;;;11.04;100.00;99828.28;4419979;32;20449;-75
2022/10/29 02:29:58;;;;;;;255.23;21.45;;;;;;;11.08;100.00;99835.00;4419925;32;20422;-75
2022/10/29 02:32:26;;;;;;;435.73;24.30;;;;;;;10.97;100.00;99829.69;4419957;32;20248;-75
2022/10/29 02:34:53;;;;;;;155.20;20.58;;;;;;;10.93;100.00;99826.47;4419984;32;20435;-76
2022/10/29 02:37:20;;;;;;;304.77;23.12;;;;;;;10.91;100.00;99844.06;4420035;32;20366;-75
2022/10/29 02:39:47;;;;;;;343.67;25.37;;;;;;;10.89;100.00;99842.53;4420083;32;20183;-75
2022/10/29 02:42:14;;;;;;;419.88;27.17;;;;;;;10.97;100.00;99837.56;4419945;32;20569;-75
2022/10/29 02:44:41;;;;;;;294.77;20.58;;;;;;;10.88;100.00;99840.84;4421509;32;20193;-75
2022/10/29 02:47:08;;;;;;;362.42;25.27;;;;;;;10.93;100.00;99831.72;4437037;32;20211;-75
2022/10/29 02:49:35;;;;;;;352.85;24.05;;;;;;;10.84;100.00;99829.78;4470508;32;20089;-75
2022/10/29 02:52:02;;;;;;;517.40;35.95;;;;;;;10.82;100.00;99834.28;4470535;32;20748;-75
2022/10/29 02:54:30;;;;;;;439.63;26.40;;;;;;;10.75;100.00;99830.41;4470476;32;20105;-75
2022/10/29 02:56:57;;;;;;;405.85;25.95;;;;;;;10.80;100.00;99821.28;4470630;32;20089;-75
2022/10/29 02:59:24;;;;;;;223.82;17.48;;;;;;;10.62;100.00;99822.62;4470447;32;20085;-75
2022/10/29 03:01:51;;;;;;;183.12;18.10;;;;;;;10.68;100.00;99821.34;4470470;32;20105;-75
2022/10/29 03:04:18;;;;;;;237.88;18.35;;;;;;;10.62;100.00;99818.22;4480903;32;20164;-76
2022/10/29 03:06:45;;;;;;;253.25;18.60;;;;;;;10.59;100.00;99815.00;4486027;31;20109;-75
2022/10/29 03:09:13;;;;;;;353.62;24.45;;;;;;;10.70;100.00;99820.28;4470927;31;20135;-75
2022/10/29 03:11:40;;;;;;;409.85;28.67;;;;;;;10.63;100.00;99819.06;4470438;32;20469;-75
2022/10/29 03:14:07;;;;;;;143.07;16.45;;;;;;;10.67;100.00;99815.25;4470537;32;20123;-75
2022/10/29 03:16:34;;;;;;;148.95;17.90;;;;;;;10.69;100.00;99823.88;4470596;32;20211;-75
2022/10/29 03:19:01;;;;;;;157.62;17.50;;;;;;;10.69;100.00;99831.72;4470780;32;20141;-75
2022/10/29 03:21:28;;;;;;;193.27;18.67;;;;;;;10.73;100.00;99829.72;4470535;32;20111;-75
2022/10/29 03:23:56;;;;;;;225.48;19.50;;;;;;;10.69;100.00;99828.25;4470836;32;20097;-75
2022/10/29 03:26:23;;;;;;;209.43;21.33;;;;;;;10.70;100.00;99815.03;4470462;32;20101;-75
2022/10/29 03:28:50;;;;;;;175.30;18.15;;;;;;;10.68;100.00;99819.56;4470526;32;20085;-75
2022/10/29 03:31:17;;;;;;;94.47;15.82;;;;;;;10.64;100.00;99820.72;4470503;32;20849;-75
2022/10/29 03:33:44;;;;;;;368.80;24.00;;;;;;;10.71;100.00;99815.88;4470363;32;20089;-75
2022/10/29 03:36:11;;;;;;;120.87;16.10;;;;;;;10.71;100.00;99808.84;4470206;32;20143;-75
2022/10/29 03:38:39;;;;;;;61.53;15.52;;;;;;;10.71;100.00;99819.34;4470481;32;20152;-75
2022/10/29 03:41:09;;;;;;;88.95;15.18;;;;;;;10.73;100.00;99809.56;4470546;32;20623;-75
2022/10/29 03:43:37;;;;;;;69.15;15.60;;;;;;;10.74;100.00;99802.56;4470436;32;20092;-75
2022/10/29 03:46:05;;;;;;;78.57;14.38;;;;;;;10.74;100.00;99807.81;4470202;32;20208;-75
2022/10/29 03:48:32;;;;;;;47.58;14.85;;;;;;;10.75;100.00;99823.41;4470289;32;20411;-75
2022/10/29 03:51:04;;;;;;;64.85;15.20;;;;;;;10.73;100.00;99822.66;4470112;32;20115;-75
2022/10/29 03:53:33;;;;;;;130.05;16.50;;;;;;;10.68;100.00;99818.72;4470326;32;20441;-75
2022/10/29 03:56:00;;;;;;;134.37;16.95;;;;;;;10.66;100.00;99818.84;4469531;32;20115;-75
2022/10/29 03:58:28;;;;;;;304.40;24.80;;;;;;;10.63;100.00;99809.41;4470130;32;20109;-75
2022/10/29 04:01:00;;;;;;;104.07;16.00;;;;;;;10.65;100.00;99809.31;4469911;32;20210;-75
2022/10/29 04:03:29;;;;;;;203.55;19.75;;;;;;;10.64;100.00;99815.47;4474976;32;20135;-75
2022/10/29 04:05:57;;;;;;;153.77;17.27;;;;;;;10.66;100.00;99813.59;4485801;31;20511;-75
2022/10/29 04:08:24;;;;;;;240.12;19.95;;;;;;;10.69;100.00;99812.53;4475790;31;20152;-75
2022/10/29 04:10:52;;;;;;;186.88;18.05;;;;;;;10.65;100.00;99814.53;4470103;32;20635;-75
2022/10/29 04:13:19;;;;;;;229.77;20.35;;;;;;;10.63;100.00;99809.41;4469998;32;20409;-75
2022/10/29 04:15:46;;;;;;;130.77;15.95;;;;;;;10.63;100.00;99816.44;4469888;32;20176;-75
2022/10/29 04:18:13;;;;;;;240.77;21.08;;;;;;;10.70;100.00;99819.44;4470057;32;20162;-75
2022/10/29 04:20:40;;;;;;;261.12;19.15;;;;;;;10.71;100.00;99826.37;4469923;32;20143;-75
2022/10/29 04:23:28;;;;;;;279.60;21.10;;;;;;;10.66;100.00;99818.84;4470041;32;20142;-75
2022/10/29 04:26:15;;;;;;;379.20;24.45;;;;;;;10.67;100.00;99820.50;4469605;32;20088;-75
2022/10/29 04:29:02;;;;;;;472.83;30.75;;;;;;;10.64;100.00;99820.72;4470092;32;20468;-75
2022/10/29 04:31:29;;;;;;;366.40;21.95;;;;;;;10.59;100.00;99821.06;4469870;32;20446;-75
2022/10/29 04:33:56;;;;;;;574.75;32.70;;;;;;;10.60;100.00;99824.53;4469864;32;20167;-75
2022/10/29 04:36:24;;;;;;;317.60;21.83;;;;;;;10.54;100.00;99822.34;4469658;32;20580;-75
2022/10/29 04:38:51;;;;;;;204.65;17.17;;;;;;;10.58;100.00;99832.50;4470109;32;20110;-75
2022/10/29 04:41:18;;;;;;;400.83;20.42;;;;;;;10.60;100.00;99821.91;4469914;32;20176;-76
2022/10/29 04:43:45;;;;;;;421.98;24.27;;;;;;;10.54;100.00;99823.19;4469920;32;20215;-75
2022/10/29 04:46:12;;;;;;;144.32;17.37;;;;;;;10.54;100.00;99823.19;4469734;32;20155;-75
2022/10/29 04:48:39;;;;;;;145.82;14.40;;;;;;;10.59;100.00;99817.63;4469900;32;20110;-76
2022/10/29 04:51:13;;;;;;;278.50;18.42;;;;;;;10.57;100.00;99820.34;4469758;32;20160;-75
2022/10/29 04:53:40;;;;;;;167.50;16.60;;;;;;;10.53;100.00;99823.31;4468539;32;20089;-76
2022/10/29 04:56:07;;;;;;;202.02;18.75;;;;;;;10.56;100.00;99828.31;4469671;32;20112;-75
2022/10/29 04:58:34;;;;;;;280.83;20.30;;;;;;;10.60;100.00;99829.78;4469861;32;20097;-75
2022/10/29 05:01:03;;;;;;;285.17;20.37;;;;;;;10.50;100.00;99828.75;4469666;32;20131;-75
2022/10/29 05:03:31;;;;;;;432.98;24.05;;;;;;;10.47;100.00;99828.00;4474844;32;20130;-75
2022/10/29 05:06:02;;;;;;;243.30;20.95;;;;;;;10.43;100.00;99829.19;4485207;31;20155;-76
2022/10/29 05:08:29;;;;;;;290.27;21.35;;;;;;;10.50;100.00;99828.75;4473778;31;20077;-75
2022/10/29 05:10:57;;;;;;;218.45;21.58;;;;;;;10.51;100.00;99822.56;4469716;32;20124;-75
2022/10/29 05:13:24;;;;;;;186.60;19.37;;;;;;;10.44;100.00;99825.63;4468184;32;20127;-75
2022/10/29 05:15:51;;;;;;;462.17;32.63;;;;;;;10.46;100.00;99821.13;4469633;32;20551;-76
2022/10/29 05:18:20;;;;;;;280.05;20.50;;;;;;;10.45;100.00;99827.31;4469689;32;20171;-75
2022/10/29 05:20:47;;;;;;;292.42;21.80;;;;;;;10.47;100.00;99814.91;4469461;32;20123;-76
2022/10/29 05:23:14;;;;;;;163.18;17.02;;;;;;;10.50;100.00;99823.53;4469603;32;20119;-76
2022/10/29 05:25:42;;;;;;;168.70;16.45;;;;;;;10.40;100.00;99821.56;4469696;32;20116;-76
2022/10/29 05:28:11;;;;;;;256.75;21.40;;;;;;;10.38;100.00;99817.37;4469416;32;20093;-75
2022/10/29 05:30:40;;;;;;;237.85;19.35;;;;;;;10.48;100.00;99824.47;4469506;32;20156;-76
2022/10/29 05:33:08;;;;;;;390.90;26.70;;;;;;;10.44;100.00;99816.94;4469239;32;20462;-75
2022/10/29 05:35:35;;;;;;;292.50;25.02;;;;;;;10.42;100.00;99822.28;4469511;32;20084;-75
2022/10/29 05:38:03;;;;;;;464.70;27.00;;;;;;;10.41;100.00;99815.34;4469481;32;20157;-75
2022/10/29 05:40:30;;;;;;;341.75;22.58;;;;;;;10.47;100.00;99827.19;4469583;32;20120;-75
2022/10/29 05:42:58;;;;;;;579.35;33.03;;;;;;;10.43;100.00;99821.34;4469345;32;20592;-75
2022/10/29 05:45:25;;;;;;;271.20;21.98;;;;;;;10.42;100.00;99827.53;4469502;32;20093;-75
2022/10/29 05:47:57;;;;;;;425.77;26.12;;;;;;;10.43;100.00;99833.59;4468127;32;20127;-75
2022/10/29 05:50:24;;;;;;;416.25;26.87;;;;;;;10.48;100.00;99831.50;4469526;32;20544;-75
2022/10/29 05:52:55;;;;;;;394.87;28.38;;;;;;;10.51;100.00;99827.78;4469174;32;20222;-75
2022/10/29 05:55:23;;;;;;;185.40;17.58;;;;;;;10.42;100.00;99811.81;4469644;32;20048;-75
2022/10/29 05:57:57;;;;;;;143.68;18.25;;;;;;;10.41;100.00;99811.91;4469349;32;20785;-75
2022/10/29 06:00:30;;;;;;;157.68;18.35;;;;;;;10.50;100.00;99810.41;4469258;32;20085;-76
2022/10/29 06:02:57;;;;;;;190.20;17.35;;;;;;;10.53;100.00;99818.87;4470483;32;20156;-75
2022/10/29 06:05:25;;;;;;;49.53;14.48;;;;;;;10.49;100.00;99814.81;4484923;32;20088;-76
2022/10/29 06:07:56;;;;;;;89.07;14.15;;;;;;;10.45;100.00;99816.81;4478561;31;20108;-75
2022/10/29 06:10:26;;;;;;;37.03;12.77;;;;;;;10.59;100.00;99807.12;4469427;32;20120;-75
2022/10/29 06:12:53;;;;;;;35.90;13.80;;;;;;;10.47;100.00;99808.84;4469348;32;20449;-75
2022/10/29 06:15:20;;;;;;;30.17;13.02;;;;;;;10.51;100.00;99809.44;4469185;32;20101;-75
2022/10/29 06:17:48;;;;;;;31.08;11.82;;;;;;;10.56;100.00;99815.22;4468622;32;20135;-75
2022/10/29 06:20:17;;;;;;;23.33;11.65;;;;;;;10.48;100.00;99823.63;4469063;32;20115;-75
2022/10/29 06:22:44;;;;;;;21.60;11.63;;;;;;;10.51;100.00;99819.94;4469048;32;20118;-75
2022/10/29 06:25:12;;;;;;;27.45;11.25;;;;;;;10.53;100.00;99818.06;4469119;32;20148;-75
2022/10/29 06:27:39;;;;;;;28.50;11.98;;;;;;;10.50;100.00;99819.09;4463702;32;158850;-75
2022/10/29 06:30:06;;;;;;;37.38;12.52;;;;;;;10.46;100.00;99834.22;4468921;32;20124;-76
2022/10/29 06:32:34;;;;;;;38.08;13.02;;;;;;;10.46;100.00;99836.84;4468769;32;20162;-76
2022/10/29 06:35:01;;;;;;;28.75;12.88;;;;;;;10.48;100.00;99831.50;4468782;32;20525;-75
2022/10/29 06:37:32;;;;;;;50.58;14.13;;;;;;;10.53;100.00;99839.03;4468672;32;20168;-75
2022/10/29 06:39:59;;;;;;;43.85;13.80;;;;;;;10.57;100.00;99835.25;4468953;32;20438;-75
2022/10/29 06:42:26;;;;;;;42.65;13.40;;;;;;;10.60;100.00;99835.84;4468793;32;20167;-75
2022/10/29 06:44:53;;;;;;;58.75;13.77;;;;;;;10.68;100.00;99834.47;4468944;32;20160;-75
2022/10/29 06:47:20;;;;;;;200.13;17.55;;;;;;;10.72;100.00;99834.13;4468789;32;20489;-75
2022/10/29 06:49:47;;;;;;;91.25;13.57;;;;;;;10.77;100.00;99847.72;4468570;32;20115;-75
2022/10/29 06:52:16;;;;;;;120.60;18.05;;;;;;;10.78;100.00;99854.63;4468443;32;20100;-75
2022/10/29 06:54:43;;;;;;;147.27;16.15;;;;;;;10.84;100.00;99848.13;4468440;32;20124;-76
2022/10/29 06:57:10;;;;;;;394.62;22.90;;;;;;;10.94;100.00;99837.78;4468673;32;20152;-75
2022/10/29 06:59:37;;;;;;;90.30;14.75;;;;;;;10.93;100.00;99833.47;4468687;32;20101;-76
2022/10/29 07:02:05;;;;;;;193.85;17.98;;;;;;;10.95;100.00;99821.94;4468426;32;20109;-75
2022/10/29 07:04:32;;;;;;;124.87;16.92;;;;;;;10.87;100.00;99815.59;4480068;32;20096;-75
2022/10/29 07:06:59;;;;;;;133.68;17.48;;;;;;;10.81;100.00;99833.44;4483112;31;20118;-75
2022/10/29 07:09:26;;;;;;;155.93;17.70;;;;;;;10.77;100.00;99823.31;4468613;32;20153;-75
2022/10/29 07:11:53;;;;;;;212.93;21.85;;;;;;;10.96;100.00;99831.50;4468410;32;20119;-75
2022/10/29 07:14:20;;;;;;;116.12;16.65;;;;;;;10.95;100.00;99828.97;4467954;32;20114;-75
2022/10/29 07:16:48;;;;;;;80.15;16.33;;;;;;;11.02;100.00;99840.66;4468521;32;20116;-76
2022/10/29 07:19:15;;;;;;;62.75;15.18;;;;;;;11.11;100.00;99847.03;4466903;32;20101;-75
2022/10/29 07:21:42;;;;;;;88.87;16.42;;;;;;;10.89;100.00;99850.41;4468485;32;20157;-75
2022/10/29 07:24:09;;;;;;;97.18;15.70;;;;;;;10.97;100.00;99845.41;4468086;32;20178;-75
2022/10/29 07:26:36;;;;;;;80.05;18.15;;;;;;;11.02;100.00;99840.66;4468008;32;20591;-75
2022/10/29 07:29:03;;;;;;;103.43;16.67;;;;;;;10.99;100.00;99843.50;4468017;32;20081;-75
2022/10/29 07:31:31;;;;;;;69.85;14.75;;;;;;;10.96;100.00;99841.13;4469899;32;20084;-75
2022/10/29 07:33:58;;;;;;;103.87;16.40;;;;;;;11.00;100.00;99845.19;4469949;32;20080;-75
2022/10/29 07:36:25;;;;;;;137.90;16.35;;;;;;;11.13;100.00;99853.00;4470082;32;20157;-75
2022/10/29 07:38:52;;;;;;;232.85;19.12;;;;;;;11.19;100.00;99852.56;4470202;32;20117;-75
2022/10/29 07:41:19;;;;;;;56.15;14.65;;;;;;;11.25;100.00;99856.47;4470341;32;20164;-75
2022/10/29 07:43:46;;;;;;;233.68;19.90;;;;;;;11.35;100.00;99855.69;4469994;32;20697;-75
2022/10/29 07:46:13;;;;;;;150.25;19.40;;;;;;;11.36;100.00;99839.00;4470224;32;20115;-75
2022/10/29 07:48:40;;;;;;;208.52;20.83;;;;;;;11.39;100.00;99837.09;4470171;32;20154;-75
2022/10/29 07:51:07;;;;;;;104.00;15.80;;;;;;;11.45;100.00;99839.25;4470022;32;20088;-75
2022/10/29 07:53:35;;;;;;;104.47;16.00;;;;;;;11.39;100.00;99842.34;4469759;32;20188;-76
2022/10/29 07:56:02;;;;;;;80.53;15.07;;;;;;;11.57;100.00;99834.84;4470000;32;20097;-76
2022/10/29 07:58:29;;;;;;;68.07;14.93;;;;;;;11.61;100.00;99837.16;4470111;32;20207;-75
2022/10/29 08:00:58;;;;;;;102.25;14.82;;;;;;;11.63;100.00;99837.03;4470174;32;20215;-75
2022/10/29 08:03:26;;;;;;;81.70;17.55;;;;;;;11.70;100.00;99825.06;4474571;32;20096;-76
2022/10/29 08:05:56;;;;;;;66.30;17.08;;;;;;;11.77;100.00;99828.91;4485671;31;20445;-76
2022/10/29 08:08:23;;;;;;;107.30;16.70;;;;;;;11.75;100.00;99838.69;4475712;31;20100;-76
2022/10/29 08:10:51;;;;;;;87.53;16.27;;;;;;;11.52;100.00;99856.19;4470087;32;20119;-76
2022/10/29 08:13:18;;;;;;;77.10;15.70;;;;;;;11.48;100.00;99860.84;4470049;32;20470;-75
2022/10/29 08:15:45;;;;;;;103.45;15.07;;;;;;;11.60;100.00;99845.12;4469898;32;20165;-76
2022/10/29 08:18:16;;;;;;;89.35;16.70;;;;;;;11.65;100.00;99848.22;4470054;32;20088;-76
2022/10/29 08:20:43;;;;;;;95.60;15.48;;;;;;;11.60;100.00;99839.88;4469823;32;20111;-75
2022/10/29 08:23:11;;;;;;;181.98;17.05;;;;;;;11.60;100.00;99840.72;4470009;32;20637;-75
2022/10/29 08:25:42;;;;;;;129.45;16.35;;;;;;;11.65;100.00;99842.97;4469870;32;20161;-75
2022/10/29 08:28:12;;;;;;;247.52;19.70;;;;;;;11.60;100.00;99850.38;4469802;32;20436;-75
2022/10/29 08:30:40;;;;;;;157.10;17.10;;;;;;;11.67;100.00;99841.06;4468435;32;20207;-76
2022/10/29 08:33:08;;;;;;;188.35;16.80;;;;;;;11.63;100.00;99834.41;4469751;32;20111;-75
2022/10/29 08:35:35;;;;;;;100.87;15.27;;;;;;;11.72;100.00;99841.56;4469750;32;20088;-75
2022/10/29 08:38:02;;;;;;;94.93;16.42;;;;;;;11.61;100.00;99844.16;4469932;32;20174;-75
2022/10/29 08:40:31;;;;;;;34.58;15.60;;;;;;;11.67;100.00;99843.69;4469841;32;20101;-75
2022/10/29 08:43:17;;;;;;;54.45;15.07;;;;;;;11.75;100.00;99851.84;4469645;32;20148;-76
2022/10/29 08:45:47;;;;;;;67.90;15.18;;;;;;;11.84;100.00;99853.75;4469669;32;20104;-75
2022/10/29 08:48:32;;;;;;;46.92;15.52;;;;;;;11.84;100.00;99866.00;4469908;32;20154;-75
2022/10/29 08:51:13;;;;;;;63.22;15.38;;;;;;;11.84;100.00;99856.37;4469712;32;20107;-75
2022/10/29 08:53:46;;;;;;;73.20;15.02;;;;;;;11.98;100.00;99849.25;4470098;32;20076;-75
2022/10/29 08:56:38;;;;;;;42.70;14.77;;;;;;;12.09;100.00;99851.84;4468820;32;20103;-75
2022/10/29 08:59:15;;;;;;;204.13;19.92;;;;;;;12.00;100.00;99845.53;4469741;32;20093;-75
2022/10/29 09:01:43;;;;;;;69.07;16.17;;;;;;;11.79;100.00;99829.62;4468577;32;20101;-75
2022/10/29 09:04:25;;;;;;;61.47;16.35;;;;;;;11.87;100.00;99826.44;4478924;32;20819;-76
2022/10/29 09:07:27;;;;;;;47.42;14.32;;;;;;;11.90;100.00;99821.75;4485224;31;20137;-75
2022/10/29 09:10:19;;;;;;;31.77;14.98;;;;;;;11.99;100.00;99830.75;4454206;32;20532;-75
2022/10/29 09:13:08;;;;;;;37.00;14.60;;;;;;;12.31;100.00;99829.12;4453041;32;20150;-75
2022/10/29 09:15:47;;;;;;;35.78;14.73;;;;;;;12.29;100.00;99831.06;4454121;32;20088;-75
2022/10/29 09:18:39;;;;;;;31.23;14.05;;;;;;;12.36;100.00;99837.50;4452832;32;20096;-75
2022/10/29 09:21:31;;;;;;;128.05;18.90;;;;;;;12.36;100.00;99835.72;4454246;32;20112;-75
2022/10/29 09:24:34;;;;;;;82.62;16.83;;;;;;;12.31;100.00;99831.75;4452803;32;20172;-76
2022/10/29 09:27:36;;;;;;;80.87;18.85;;;;;;;12.27;100.00;99828.56;4453706;32;20506;-76
2022/10/29 09:30:10;;;;;;;96.32;17.90;;;;;;;12.58;100.00;99837.47;4405372;32;20208;-76
2022/10/29 09:32:45;;;;;;;157.65;19.67;;;;;;;12.64;100.00;99824.78;4405502;32;20129;-75
2022/10/29 09:35:14;;;;;;;84.10;20.20;;;;;;;12.52;100.00;99824.81;4405329;32;20197;-75
2022/10/29 09:37:48;;;;;;;50.35;17.40;;;;;;;12.66;100.00;99822.88;4405348;32;20716;-75
2022/10/29 09:40:18;;;;;;;;;;;;;;;12.67;100.00;99830.63;4405746;32;20153;-75
2022/10/29 09:42:46;;;;;;;34.50;16.83;;;;;;;12.87;100.00;99838.66;4405377;32;20248;-76
2022/10/29 09:45:17;;;;;;;40.50;18.12;;;;;;;12.71;100.00;99846.97;4405297;32;20158;-75
2022/10/29 09:47:51;;;;;;;61.58;19.00;;;;;;;12.78;100.00;99849.00;4405149;32;20149;-75
2022/10/29 09:50:39;;;;;;;41.63;18.30;;;;;;;12.51;100.00;99827.56;4405123;32;20288;-75
2022/10/29 09:53:07;;;;;;;43.08;17.30;;;;;;;12.69;100.00;99833.97;4404601;32;20126;-75
2022/10/29 09:55:40;;;;;;;36.05;17.50;;;;;;;12.80;100.00;99830.47;4405138;32;20125;-76
2022/10/29 09:58:17;;;;;;;37.67;17.42;;;;;;;12.67;100.00;99812.22;4405227;32;20690;-76
2022/10/29 10:00:44;;;;;;;39.03;18.25;;;;;;;12.82;100.00;99812.75;4405044;32;20094;-75
2022/10/29 10:03:17;;;;;;;40.35;18.40;;;;;;;12.91;100.00;99804.13;4408172;32;20124;-75
2022/10/29 10:05:57;;;;;;;51.35;18.05;;;;;;;12.89;100.00;99807.84;4422565;32;20122;-76
2022/10/29 10:08:24;;;;;;;44.28;17.50;;;;;;;12.87;100.00;99800.06;4463601;32;20119;-75
2022/10/29 10:11:00;;;;;;;42.85;18.27;;;;;;;12.66;100.00;99815.00;4469234;32;20238;-76
2022/10/29 10:13:31;;;;;;;47.42;21.33;;;;;;;12.71;100.00;99826.78;4468083;32;20092;-75
2022/10/29 10:16:00;;;;;;;42.30;18.75;;;;;;;12.73;100.00;99822.25;4469217;32;20080;-75
2022/10/29 10:18:30;;;;;;;39.83;18.65;;;;;;;12.69;100.00;99810.31;4467948;32;20156;-75
2022/10/29 10:21:22;;;;;;;46.10;17.75;;;;;;;12.60;100.00;99816.31;4469209;32;20092;-76
2022/10/29 10:23:51;;;;;;;48.50;18.17;;;;;;;12.48;100.00;99814.69;4469145;32;20490;-75
2022/10/29 10:26:28;;;;;;;68.65;19.92;;;;;;;12.49;100.00;99806.66;4468657;32;20139;-76
2022/10/29 10:29:20;;;;;;;65.93;19.05;;;;;;;12.44;100.00;99808.81;4468955;32;20111;-75
2022/10/29 10:31:48;;;;;;;68.57;19.00;;;;;;;12.03;100.00;99803.25;4468802;32;20172;-75
2022/10/29 10:34:37;;;;;;;117.32;22.40;;;;;;;12.12;100.00;99796.47;4468720;32;20146;-75
2022/10/29 10:37:14;;;;;;;75.32;21.20;;;;;;;12.05;100.00;99792.63;4468645;32;20100;-75
2022/10/29 10:39:45;;;;;;;135.18;21.55;;;;;;;12.18;100.00;99797.78;4468777;32;20573;-75
2022/10/29 10:42:19;;;;;;;53.75;21.33;;;;;;;12.13;100.00;99803.37;4467588;32;20084;-75
2022/10/29 10:44:53;;;;;;;48.50;20.42;;;;;;;12.12;100.00;99793.00;4467599;32;20085;-76
2022/10/29 10:47:23;;;;;;;50.85;20.85;;;;;;;12.19;100.00;99789.75;4467581;32;20121;-75
2022/10/29 10:49:49;;;;;;;42.62;18.70;;;;;;;12.28;100.00;99784.72;4468787;32;20136;-76
2022/10/29 10:52:20;;;;;;;40.80;18.77;;;;;;;12.32;100.00;99788.78;4468556;32;20097;-75
2022/10/29 10:55:07;;;;;;;40.25;18.17;;;;;;;12.35;100.00;99783.28;4467693;32;20143;-75
2022/10/29 10:57:39;;;;;;;44.08;19.98;;;;;;;12.70;100.00;99774.31;4467750;32;20113;-75
2022/10/29 11:00:20;;;;;;;52.92;19.12;;;;;;;12.74;100.00;99768.69;4468615;32;20152;-75
2022/10/29 11:02:56;;;;;;;44.55;20.23;;;;;;;12.81;100.00;99770.81;4467720;32;20112;-75
2022/10/29 11:05:40;;;;;;;45.97;20.23;;;;;;;12.59;100.00;99776.03;4485626;32;20119;-76
2022/10/29 11:08:23;;;;;;;41.35;20.02;;;;;;;12.62;100.00;99784.62;4469022;32;20189;-76
2022/10/29 11:10:55;;;;;;;44.72;20.60;;;;;;;12.61;100.00;99781.16;4453860;32;20119;-75
2022/10/29 11:13:24;;;;;;;57.40;19.80;;;;;;;12.77;100.00;99768.44;4455041;32;20095;-75
2022/10/29 11:15:56;;;;;;;57.50;21.05;;;;;;;12.80;100.00;99764.72;4453775;32;20105;-75
2022/10/29 11:18:37;;;;;;;56.78;20.12;;;;;;;12.75;100.00;99767.72;4455096;32;20081;-75
2022/10/29 11:21:06;;;;;;;44.28;19.92;;;;;;;12.72;100.00;99760.09;4455063;32;20105;-75
2022/10/29 11:23:58;;;;;;;44.65;19.50;;;;;;;12.76;100.00;99758.03;4453800;32;20441;-76